• Join FlightAware (Why Join?)
  • Login
  • US Flag 
07:04AM EDT


 

Airport Tracker/Info


-or-


 

Live Flight TrackerFlight Track Log ✈ UAL978 ✈ 07-Jul-2013 ✈ SBGR / GRU - KIAH

Flight Track Log - Related Links

Times and Time Zones

All times are in EDT time to prevent confusion due to time zone crossing. See the UAL978 flight status page for this flight to view local times or setup timezone preferences in your user account.

Time Position Orientation Groundspeed Altitude Reporting Facility
EDT Latitude Longitude Course Direction KTS MPH feet Rate Location/Type
04:33AM -23.3500 -46.5547 316° Northwest  Level Estimated
04:34AM -23.2678 -46.6397 316° Northwest  Level Estimated
04:35AM -23.1856 -46.7247 316° Northwest  Level Estimated
04:36AM -23.1033 -46.8095 317° Northwest  Level Estimated
04:37AM -23.0210 -46.8943 317° Northwest  Level Estimated
04:38AM -22.9386 -46.9789 317° Northwest  Level Estimated
04:39AM -22.8562 -47.0635 317° Northwest  Level Estimated
04:40AM -22.7738 -47.1479 317° Northwest  Level Estimated
04:41AM -22.6913 -47.2322 317° Northwest  Level Estimated
04:42AM -22.6088 -47.3165 317° Northwest  Level Estimated
04:43AM -22.5262 -47.4006 317° Northwest  Level Estimated
04:44AM -22.4436 -47.4846 317° Northwest  Level Estimated
04:45AM -22.3609 -47.5686 317° Northwest  Level Estimated
04:46AM -22.2782 -47.6524 317° Northwest  Level Estimated
04:47AM -22.1954 -47.7361 317° Northwest  Level Estimated
04:48AM -22.1126 -47.8197 317° Northwest  Level Estimated
04:49AM -22.0298 -47.9033 317° Northwest  Level Estimated
04:50AM -21.9469 -47.9867 317° Northwest  Level Estimated
04:51AM -21.8640 -48.0701 317° Northwest  Level Estimated
04:52AM -21.7810 -48.1533 317° Northwest  Level Estimated
04:53AM -21.6980 -48.2365 317° Northwest  Level Estimated
04:54AM -21.6150 -48.3195 317° Northwest  Level Estimated
04:55AM -21.5319 -48.4025 317° Northwest  Level Estimated
04:56AM -21.4488 -48.4853 317° Northwest  Level Estimated
04:57AM -21.3656 -48.5681 317° Northwest  Level Estimated
04:58AM -21.2824 -48.6508 317° Northwest  Level Estimated
04:59AM -21.1992 -48.7333 317° Northwest  Level Estimated
05:00AM -21.1159 -48.8158 317° Northwest  Level Estimated
05:01AM -21.0325 -48.8982 317° Northwest  Level Estimated
05:02AM -20.9492 -48.9805 317° Northwest  Level Estimated
05:03AM -20.8657 -49.0627 317° Northwest  Level Estimated
05:04AM -20.7823 -49.1449 317° Northwest  Level Estimated
05:05AM -20.6988 -49.2269 317° Northwest  Level Estimated
05:06AM -20.6153 -49.3088 317° Northwest  Level Estimated
05:07AM -20.5317 -49.3907 317° Northwest  Level Estimated
05:08AM -20.4481 -49.4724 317° Northwest  Level Estimated
05:09AM -20.3645 -49.5541 318° Northwest  Level Estimated
05:10AM -20.2808 -49.6357 318° Northwest  Level Estimated
05:11AM -20.1971 -49.7172 318° Northwest  Level Estimated
05:12AM -20.1133 -49.7986 318° Northwest  Level Estimated
05:13AM -20.0296 -49.8799 318° Northwest  Level Estimated
05:14AM -19.9457 -49.9611 318° Northwest  Level Estimated
05:15AM -19.8619 -50.0423 318° Northwest  Level Estimated
05:16AM -19.7780 -50.1233 318° Northwest  Level Estimated
05:17AM -19.6940 -50.2043 318° Northwest  Level Estimated
05:18AM -19.6101 -50.2852 318° Northwest  Level Estimated
05:19AM -19.5260 -50.3660 318° Northwest  Level Estimated
05:20AM -19.4420 -50.4467 318° Northwest  Level Estimated
05:21AM -19.3579 -50.5274 318° Northwest  Level Estimated
05:22AM -19.2738 -50.6079 318° Northwest  Level Estimated
05:23AM -19.1896 -50.6884 318° Northwest  Level Estimated
05:24AM -19.1054 -50.7688 318° Northwest  Level Estimated
05:25AM -19.0212 -50.8491 318° Northwest  Level Estimated
05:26AM -18.9370 -50.9293 318° Northwest  Level Estimated
05:27AM -18.8527 -51.0095 318° Northwest  Level Estimated
05:28AM -18.7684 -51.0895 318° Northwest  Level Estimated
05:29AM -18.6840 -51.1695 318° Northwest  Level Estimated
05:30AM -18.5996 -51.2494 318° Northwest  Level Estimated
05:31AM -18.5152 -51.3293 318° Northwest  Level Estimated
05:32AM -18.4307 -51.4090 318° Northwest  Level Estimated
05:33AM -18.3462 -51.4887 318° Northwest  Level Estimated
05:34AM -18.2617 -51.5683 318° Northwest  Level Estimated
05:35AM -18.1771 -51.6478 318° Northwest  Level Estimated
05:36AM -18.0925 -51.7272 318° Northwest  Level Estimated
05:37AM -18.0079 -51.8066 318° Northwest  Level Estimated
05:38AM -17.9233 -51.8859 318° Northwest  Level Estimated
05:39AM -17.8386 -51.9651 318° Northwest  Level Estimated
05:40AM -17.7539 -52.0442 318° Northwest  Level Estimated
05:41AM -17.6691 -52.1233 318° Northwest  Level Estimated
05:42AM -17.5843 -52.2022 318° Northwest  Level Estimated
05:43AM -17.4995 -52.2812 318° Northwest  Level Estimated
05:44AM -17.4146 -52.3600 318° Northwest  Level Estimated
05:45AM -17.3298 -52.4388 318° Northwest  Level Estimated
05:46AM -17.2449 -52.5174 318° Northwest  Level Estimated
05:47AM -17.1599 -52.5961 319° Northwest  Level Estimated
05:48AM -17.0749 -52.6746 319° Northwest  Level Estimated
05:49AM -16.9900 -52.7531 319° Northwest  Level Estimated
05:50AM -16.9049 -52.8315 319° Northwest  Level Estimated
05:51AM -16.8199 -52.9098 319° Northwest  Level Estimated
05:52AM -16.7348 -52.9881 319° Northwest  Level Estimated
05:53AM -16.6497 -53.0663 319° Northwest  Level Estimated
05:54AM -16.5645 -53.1444 319° Northwest  Level Estimated
05:55AM -16.4793 -53.2224 319° Northwest  Level Estimated
05:56AM -16.3941 -53.3004 319° Northwest  Level Estimated
05:57AM -16.3089 -53.3783 319° Northwest  Level Estimated
05:58AM -16.2236 -53.4562 319° Northwest  Level Estimated
05:59AM -16.1383 -53.5340 319° Northwest  Level Estimated
06:00AM -16.0530 -53.6117 319° Northwest  Level Estimated
06:01AM -15.9677 -53.6893 319° Northwest  Level Estimated
06:02AM -15.8823 -53.7669 319° Northwest  Level Estimated
06:03AM -15.7969 -53.8444 319° Northwest  Level Estimated
06:04AM -15.7114 -53.9219 319° Northwest  Level Estimated
06:05AM -15.6260 -53.9993 319° Northwest  Level Estimated
06:06AM -15.5405 -54.0766 319° Northwest  Level Estimated
06:07AM -15.4550 -54.1538 319° Northwest  Level Estimated
06:08AM -15.3695 -54.2310 319° Northwest  Level Estimated
06:09AM -15.2839 -54.3082 319° Northwest  Level Estimated
06:10AM -15.1983 -54.3852 319° Northwest  Level Estimated
06:11AM -15.1127 -54.4622 319° Northwest  Level Estimated
06:12AM -15.0271 -54.5392 319° Northwest  Level Estimated
06:13AM -14.9414 -54.6161 319° Northwest  Level Estimated
06:14AM -14.8557 -54.6929 319° Northwest  Level Estimated
06:15AM -14.7700 -54.7696 319° Northwest  Level Estimated
06:16AM -14.6842 -54.8463 319° Northwest  Level Estimated
06:17AM -14.5984 -54.9230 319° Northwest  Level Estimated
06:18AM -14.5126 -54.9995 319° Northwest  Level Estimated
06:19AM -14.4268 -55.0761 319° Northwest  Level Estimated
06:20AM -14.3410 -55.1525 319° Northwest  Level Estimated
06:21AM -14.2551 -55.2289 319° Northwest  Level Estimated
06:22AM -14.1692 -55.3053 319° Northwest  Level Estimated
06:23AM -14.0833 -55.3815 319° Northwest  Level Estimated
06:24AM -13.9973 -55.4578 319° Northwest  Level Estimated
06:25AM -13.9114 -55.5340 319° Northwest  Level Estimated
06:26AM -13.8254 -55.6101 319° Northwest  Level Estimated
06:27AM -13.7394 -55.6861 319° Northwest  Level Estimated
06:28AM -13.6533 -55.7621 319° Northwest  Level Estimated
06:29AM -13.5673 -55.8381 319° Northwest  Level Estimated
06:30AM -13.4812 -55.9140 319° Northwest  Level Estimated
06:31AM -13.3951 -55.9898 319° Northwest  Level Estimated
06:32AM -13.3090 -56.0656 319° Northwest  Level Estimated
06:33AM -13.2228 -56.1413 319° Northwest  Level Estimated
06:34AM -13.1366 -56.2170 319° Northwest  Level Estimated
06:35AM -13.0505 -56.2926 319° Northwest  Level Estimated
06:36AM -12.9642 -56.3682 319° Northwest  Level Estimated
06:37AM -12.8780 -56.4437 320° Northwest  Level Estimated
06:38AM -12.7917 -56.5192 320° Northwest  Level Estimated
06:39AM -12.7055 -56.5946 320° Northwest  Level Estimated
06:40AM -12.6192 -56.6699 320° Northwest  Level Estimated
06:41AM -12.5328 -56.7452 320° Northwest  Level Estimated
06:42AM -12.4465 -56.8205 320° Northwest  Level Estimated
06:43AM -12.3601 -56.8957 320° Northwest  Level Estimated
06:44AM -12.2737 -56.9709 320° Northwest  Level Estimated
06:45AM -12.1873 -57.0460 320° Northwest  Level Estimated
06:46AM -12.1009 -57.1210 320° Northwest  Level Estimated
06:47AM -12.0144 -57.1960 320° Northwest  Level Estimated
06:48AM -11.9280 -57.2710 320° Northwest  Level Estimated
06:49AM -11.8415 -57.3459 320° Northwest  Level Estimated
06:50AM -11.7550 -57.4208 320° Northwest  Level Estimated
06:51AM -11.6684 -57.4956 320° Northwest  Level Estimated
06:52AM -11.5819 -57.5704 320° Northwest  Level Estimated
06:53AM -11.4953 -57.6451 320° Northwest  Level Estimated
06:54AM -11.4087 -57.7198 320° Northwest  Level Estimated
06:55AM -11.3222 -57.7945 320° Northwest  Level Estimated
06:56AM -11.2355 -57.8691 320° Northwest  Level Estimated
06:57AM -11.1489 -57.9436 320° Northwest  Level Estimated
06:58AM -11.0622 -58.0181 320° Northwest  Level Estimated
06:59AM -10.9755 -58.0926 320° Northwest  Level Estimated
07:00AM -10.8889 -58.1670 320° Northwest  Level Estimated
07:01AM -10.8021 -58.2414 320° Northwest  Level Estimated
07:02AM -10.7154 -58.3157 320° Northwest  Level Estimated
07:03AM -10.6287 -58.3900 320° Northwest  Level Estimated
07:04AM -10.5419 -58.4642 320° Northwest  Level Estimated
07:05AM -10.4551 -58.5384 320° Northwest  Level Estimated
07:06AM -10.3683 -58.6126 320° Northwest  Level Estimated
07:07AM -10.2815 -58.6867 320° Northwest  Level Estimated
07:08AM -10.1947 -58.7608 320° Northwest  Level Estimated
07:09AM -10.1078 -58.8348 320° Northwest  Level Estimated
07:10AM -10.0210 -58.9088 320° Northwest  Level Estimated
07:11AM -9.9341 -58.9828 320° Northwest  Level Estimated
07:12AM -9.8472 -59.0567 320° Northwest  Level Estimated
07:13AM -9.7603 -59.1306 320° Northwest  Level Estimated
07:14AM -9.6733 -59.2044 320° Northwest  Level Estimated
07:15AM -9.5864 -59.2783 320° Northwest  Level Estimated
07:16AM -9.4994 -59.3520 320° Northwest  Level Estimated
07:17AM -9.4124 -59.4258 320° Northwest  Level Estimated
07:18AM -9.3254 -59.4994 320° Northwest  Level Estimated
07:19AM -9.2384 -59.5731 320° Northwest  Level Estimated
07:20AM -9.1514 -59.6467 320° Northwest  Level Estimated
07:21AM -9.0644 -59.7203 320° Northwest  Level Estimated
07:22AM -8.9773 -59.7938 320° Northwest  Level Estimated
07:23AM -8.8903 -59.8674 320° Northwest  Level Estimated
07:24AM -8.8032 -59.9408 320° Northwest  Level Estimated
07:25AM -8.7161 -60.0143 320° Northwest  Level Estimated
07:26AM -8.6290 -60.0877 320° Northwest  Level Estimated
07:27AM -8.5418 -60.1611 320° Northwest  Level Estimated
07:28AM -8.4547 -60.2344 320° Northwest  Level Estimated
07:29AM -8.3675 -60.3077 320° Northwest  Level Estimated
07:30AM -8.2804 -60.3810 320° Northwest  Level Estimated
07:31AM -8.1932 -60.4542 320° Northwest  Level Estimated
07:32AM -8.1060 -60.5275 320° Northwest  Level Estimated
07:33AM -8.0188 -60.6006 320° Northwest  Level Estimated
07:34AM -7.9316 -60.6738 320° Northwest  Level Estimated
07:35AM -7.8444 -60.7469 320° Northwest  Level Estimated
07:36AM -7.7571 -60.8200 320° Northwest  Level Estimated
07:37AM -7.6699 -60.8931 320° Northwest  Level Estimated
07:38AM -7.5826 -60.9661 320° Northwest  Level Estimated
07:39AM -7.4953 -61.0391 320° Northwest  Level Estimated
07:40AM -7.4080 -61.1120 320° Northwest  Level Estimated
07:41AM -7.3207 -61.1850 320° Northwest  Level Estimated
07:42AM -7.2334 -61.2579 320° Northwest  Level Estimated
07:43AM -7.1461 -61.3308 320° Northwest  Level Estimated
07:44AM -7.0587 -61.4036 320° Northwest  Level Estimated
07:45AM -6.9714 -61.4765 320° Northwest  Level Estimated
07:46AM -6.8840 -61.5493 320° Northwest  Level Estimated
07:47AM -6.7966 -61.6220 320° Northwest  Level Estimated
07:48AM -6.7093 -61.6948 320° Northwest  Level Estimated
07:49AM -6.6219 -61.7675 320° Northwest  Level Estimated
07:50AM -6.5345 -61.8402 320° Northwest  Level Estimated
07:51AM -6.4471 -61.9129 320° Northwest  Level Estimated
07:52AM -6.3597 -61.9855 320° Northwest  Level Estimated
07:53AM -6.2722 -62.0581 320° Northwest  Level Estimated
07:54AM -6.1848 -62.1307 320° Northwest  Level Estimated
07:55AM -6.0973 -62.2033 320° Northwest  Level Estimated
07:56AM -6.0099 -62.2758 320° Northwest  Level Estimated
07:57AM -5.9224 -62.3484 320° Northwest  Level Estimated
07:58AM -5.8349 -62.4209 320° Northwest  Level Estimated
07:59AM -5.7474 -62.4934 321° Northwest  Level Estimated
08:00AM -5.6599 -62.5658 321° Northwest  Level Estimated
08:01AM -5.5724 -62.6382 321° Northwest  Level Estimated
08:02AM -5.4849 -62.7107 321° Northwest  Level Estimated
08:03AM -5.3973 -62.7830 321° Northwest  Level Estimated
08:04AM -5.3098 -62.8554 321° Northwest  Level Estimated
08:05AM -5.2223 -62.9278 321° Northwest  Level Estimated
08:06AM -5.1347 -63.0001 321° Northwest  Level Estimated
08:07AM -5.0472 -63.0724 321° Northwest  Level Estimated
08:08AM -4.9596 -63.1447 321° Northwest  Level Estimated
08:09AM -4.8720 -63.2170 321° Northwest  Level Estimated
08:10AM -4.7844 -63.2892 321° Northwest  Level Estimated
08:11AM -4.6968 -63.3614 321° Northwest  Level Estimated
08:12AM -4.6092 -63.4337 321° Northwest  Level Estimated
08:13AM -4.5216 -63.5059 321° Northwest  Level Estimated
08:14AM -4.4340 -63.5780 321° Northwest  Level Estimated
08:15AM -4.3464 -63.6502 321° Northwest  Level Estimated
08:16AM -4.2587 -63.7224 321° Northwest  Level Estimated
08:17AM -4.1711 -63.7945 321° Northwest  Level Estimated
08:18AM -4.0835 -63.8666 321° Northwest  Level Estimated
08:19AM -3.9958 -63.9387 321° Northwest  Level Estimated
08:20AM -3.9082 -64.0108 321° Northwest  Level Estimated
08:21AM -3.8205 -64.0828 321° Northwest  Level Estimated
08:22AM -3.7328 -64.1549 321° Northwest  Level Estimated
08:23AM -3.6452 -64.2269 321° Northwest  Level Estimated
08:24AM -3.5575 -64.2990 321° Northwest  Level Estimated
08:25AM -3.4698 -64.3710 321° Northwest  Level Estimated
08:26AM -3.3821 -64.4430 321° Northwest  Level Estimated
08:27AM -3.2944 -64.5150 321° Northwest  Level Estimated
08:28AM -3.2067 -64.5869 321° Northwest  Level Estimated
08:29AM -3.1190 -64.6589 321° Northwest  Level Estimated
08:30AM -3.0313 -64.7308 321° Northwest  Level Estimated
08:31AM -2.9436 -64.8028 321° Northwest  Level Estimated
08:32AM -2.8559 -64.8747 321° Northwest  Level Estimated
08:33AM -2.7681 -64.9466 321° Northwest  Level Estimated
08:34AM -2.6804 -65.0185 321° Northwest  Level Estimated
08:35AM -2.5927 -65.0904 321° Northwest  Level Estimated
08:36AM -2.5049 -65.1623 321° Northwest  Level Estimated
08:37AM -2.4172 -65.2342 321° Northwest  Level Estimated
08:38AM -2.3295 -65.3060 321° Northwest  Level Estimated
08:39AM -2.2417 -65.3779 321° Northwest  Level Estimated
08:40AM -2.1540 -65.4497 321° Northwest  Level Estimated
08:41AM -2.0662 -65.5216 321° Northwest  Level Estimated
08:42AM -1.9784 -65.5934 321° Northwest  Level Estimated
08:43AM -1.8907 -65.6652 321° Northwest  Level Estimated
08:44AM -1.8029 -65.7370 321° Northwest  Level Estimated
08:45AM -1.7151 -65.8089 321° Northwest  Level Estimated
08:46AM -1.6274 -65.8807 321° Northwest  Level Estimated
08:47AM -1.5396 -65.9525 321° Northwest  Level Estimated
08:48AM -1.4518 -66.0242 321° Northwest  Level Estimated
08:49AM -1.3641 -66.0960 321° Northwest  Level Estimated
08:50AM -1.2763 -66.1678 321° Northwest  Level Estimated
08:51AM -1.1885 -66.2396 321° Northwest  Level Estimated
08:52AM -1.1007 -66.3113 321° Northwest  Level Estimated
08:53AM -1.0129 -66.3831 321° Northwest  Level Estimated
08:54AM -0.9251 -66.4549 321° Northwest  Level Estimated
08:55AM -0.8374 -66.5266 321° Northwest  Level Estimated
08:56AM -0.7496 -66.5984 321° Northwest  Level Estimated
08:57AM -0.6618 -66.6701 321° Northwest  Level Estimated
08:58AM -0.5740 -66.7419 321° Northwest  Level Estimated
08:59AM -0.4862 -66.8136 321° Northwest  Level Estimated
09:00AM -0.3984 -66.8854 321° Northwest  Level Estimated
09:01AM -0.3106 -66.9571 321° Northwest  Level Estimated
09:02AM -0.2228 -67.0289 321° Northwest  Level Estimated
09:03AM -0.1350 -67.1006 321° Northwest  Level Estimated
09:04AM -0.0472 -67.1723 321° Northwest  Level Estimated
09:05AM 0.0405 -67.2441 321° Northwest  Level Estimated
09:06AM 0.1283 -67.3158 321° Northwest  Level Estimated
09:07AM 0.2161 -67.3876 321° Northwest  Level Estimated
09:08AM 0.3039 -67.4593 321° Northwest  Level Estimated
09:09AM 0.3917 -67.5310 321° Northwest  Level Estimated
09:10AM 0.4795 -67.6028 321° Northwest  Level Estimated
09:11AM 0.5673 -67.6745 321° Northwest  Level Estimated
09:12AM 0.6551 -67.7463 321° Northwest  Level Estimated
09:13AM 0.7429 -67.8180 321° Northwest  Level Estimated
09:14AM 0.8306 -67.8898 321° Northwest  Level Estimated
09:15AM 0.9184 -67.9615 321° Northwest  Level Estimated
09:16AM 1.0062 -68.0333 321° Northwest  Level Estimated
09:17AM 1.0940 -68.1051 321° Northwest  Level Estimated
09:18AM 1.1818 -68.1768 321° Northwest  Level Estimated
09:19AM 1.2696 -68.2486 321° Northwest  Level Estimated
09:20AM 1.3574 -68.3204 321° Northwest  Level Estimated
09:21AM 1.4451 -68.3922 321° Northwest  Level Estimated
09:22AM 1.5329 -68.4640 321° Northwest  Level Estimated
09:23AM 1.6207 -68.5358 321° Northwest  Level Estimated
09:24AM 1.7085 -68.6076 321° Northwest  Level Estimated
09:25AM 1.7962 -68.6794 321° Northwest  Level Estimated
09:26AM 1.8840 -68.7512 321° Northwest  Level Estimated
09:27AM 1.9718 -68.8230 321° Northwest  Level Estimated
09:28AM 2.0595 -68.8948 321° Northwest  Level Estimated
09:29AM 2.1473 -68.9667 321° Northwest  Level Estimated
09:30AM 2.2350 -69.0385 321° Northwest  Level Estimated
09:31AM 2.3228 -69.1104 321° Northwest  Level Estimated
09:32AM 2.4105 -69.1822 321° Northwest  Level Estimated
09:33AM 2.4983 -69.2541 321° Northwest  Level Estimated
09:34AM 2.5860 -69.3260 321° Northwest  Level Estimated
09:35AM 2.6737 -69.3979 321° Northwest  Level Estimated
09:36AM 2.7615 -69.4698 321° Northwest  Level Estimated
09:37AM 2.8492 -69.5417 321° Northwest  Level Estimated
09:38AM 2.9369 -69.6136 321° Northwest  Level Estimated
09:39AM 3.0246 -69.6855 321° Northwest  Level Estimated
09:40AM 3.1123 -69.7575 321° Northwest  Level Estimated
09:41AM 3.2000 -69.8295 321° Northwest  Level Estimated
09:42AM 3.2877 -69.9014 321° Northwest  Level Estimated
09:43AM 3.3754 -69.9734 321° Northwest  Level Estimated
09:44AM 3.4631 -70.0454 321° Northwest  Level Estimated
09:45AM 3.5508 -70.1174 321° Northwest  Level Estimated
09:46AM 3.6385 -70.1894 321° Northwest  Level Estimated
09:47AM 3.7262 -70.2615 321° Northwest  Level Estimated
09:48AM 3.8138 -70.3335 321° Northwest  Level Estimated
09:49AM 3.9015 -70.4056 321° Northwest  Level Estimated
09:50AM 3.9891 -70.4777 321° Northwest  Level Estimated
09:51AM 4.0768 -70.5498 321° Northwest  Level Estimated
09:52AM 4.1644 -70.6219 321° Northwest  Level Estimated
09:53AM 4.2521 -70.6940 321° Northwest  Level Estimated
09:54AM 4.3397 -70.7662 321° Northwest  Level Estimated
09:55AM 4.4273 -70.8383 321° Northwest  Level Estimated
09:56AM 4.5149 -70.9105 321° Northwest  Level Estimated
09:57AM 4.6026 -70.9827 321° Northwest  Level Estimated
09:58AM 4.6901 -71.0549 321° Northwest  Level Estimated
09:59AM 4.7777 -71.1272 321° Northwest  Level Estimated
10:00AM 4.8653 -71.1994 321° Northwest  Level Estimated
10:01AM 4.9529 -71.2717 321° Northwest  Level Estimated
10:02AM 5.0405 -71.3440 321° Northwest  Level Estimated
10:03AM 5.1280 -71.4163 321° Northwest  Level Estimated
10:04AM 5.2156 -71.4886 321° Northwest  Level Estimated
10:05AM 5.3031 -71.5610 321° Northwest  Level Estimated
10:06AM 5.3907 -71.6333 321° Northwest  Level Estimated
10:07AM 5.4782 -71.7057 321° Northwest  Level Estimated
10:08AM 5.5657 -71.7781 321° Northwest  Level Estimated
10:09AM 5.6532 -71.8505 321° Northwest  Level Estimated
10:10AM 5.7407 -71.9230 321° Northwest  Level Estimated
10:11AM 5.8282 -71.9955 321° Northwest  Level Estimated
10:12AM 5.9157 -72.0680 321° Northwest  Level Estimated
10:13AM 6.0032 -72.1405 320° Northwest  Level Estimated
10:14AM 6.0907 -72.2131 320° Northwest  Level Estimated
10:15AM 6.1781 -72.2856 320° Northwest  Level Estimated
10:16AM 6.2656 -72.3582 320° Northwest  Level Estimated
10:17AM 6.3530 -72.4308 320° Northwest  Level Estimated
10:18AM 6.4404 -72.5035 320° Northwest  Level Estimated
10:19AM 6.5279 -72.5761 320° Northwest  Level Estimated
10:20AM 6.6153 -72.6488 320° Northwest  Level Estimated
10:21AM 6.7027 -72.7215 320° Northwest  Level Estimated
10:22AM 6.7900 -72.7943 320° Northwest  Level Estimated
10:23AM 6.8774 -72.8671 320° Northwest  Level Estimated
10:24AM 6.9648 -72.9399 320° Northwest  Level Estimated
10:25AM 7.0521 -73.0127 320° Northwest  Level Estimated
10:26AM 7.1395 -73.0855 320° Northwest  Level Estimated
10:27AM 7.2268 -73.1584 320° Northwest  Level Estimated
10:28AM 7.3141 -73.2313 320° Northwest  Level Estimated
10:29AM 7.4014 -73.3043 320° Northwest  Level Estimated
10:30AM 7.4887 -73.3772 320° Northwest  Level Estimated
10:31AM 7.5760 -73.4502 320° Northwest  Level Estimated
10:32AM 7.6632 -73.5233 320° Northwest  Level Estimated
10:33AM 7.7505 -73.5963 320° Northwest  Level Estimated
10:34AM 7.8377 -73.6694 320° Northwest  Level Estimated
10:35AM 7.9250 -73.7425 320° Northwest  Level Estimated
10:36AM 8.0122 -73.8157 320° Northwest  Level Estimated
10:37AM 8.0994 -73.8888 320° Northwest  Level Estimated
10:38AM 8.1866 -73.9621 320° Northwest  Level Estimated
10:39AM 8.2738 -74.0353 320° Northwest  Level Estimated
10:40AM 8.3609 -74.1086 320° Northwest  Level Estimated
10:41AM 8.4481 -74.1819 320° Northwest  Level Estimated
10:42AM 8.5352 -74.2552 320° Northwest  Level Estimated
10:43AM 8.6224 -74.3286 320° Northwest  Level Estimated
10:44AM 8.7095 -74.4020 320° Northwest  Level Estimated
10:45AM 8.7966 -74.4754 320° Northwest  Level Estimated
10:46AM 8.8836 -74.5489 320° Northwest  Level Estimated
10:47AM 8.9707 -74.6224 320° Northwest  Level Estimated
10:48AM 9.0578 -74.6960 320° Northwest  Level Estimated
10:49AM 9.1448 -74.7696 320° Northwest  Level Estimated
10:50AM 9.2318 -74.8432 320° Northwest  Level Estimated
10:51AM 9.3188 -74.9168 320° Northwest  Level Estimated
10:52AM 9.4058 -74.9905 320° Northwest  Level Estimated
10:53AM 9.4928 -75.0642 320° Northwest  Level Estimated
10:54AM 9.5798 -75.1380 320° Northwest  Level Estimated
10:55AM 9.6667 -75.2118 320° Northwest  Level Estimated
10:56AM 9.7536 -75.2857 320° Northwest  Level Estimated
10:57AM 9.8406 -75.3595 320° Northwest  Level Estimated
10:58AM 9.9275 -75.4335 320° Northwest  Level Estimated
10:59AM 10.0143 -75.5074 320° Northwest  Level Estimated
11:00AM 10.1012 -75.5814 320° Northwest  Level Estimated
11:01AM 10.1881 -75.6555 320° Northwest  Level Estimated
11:02AM 10.2749 -75.7295 320° Northwest  Level Estimated
11:03AM 10.3617 -75.8037 320° Northwest  Level Estimated
11:04AM 10.4485 -75.8778 320° Northwest  Level Estimated
11:05AM 10.5353 -75.9520 320° Northwest  Level Estimated
11:06AM 10.6221 -76.0263 320° Northwest  Level Estimated
11:07AM 10.7088 -76.1005 320° Northwest  Level Estimated
11:08AM 10.7956 -76.1749 320° Northwest  Level Estimated
11:09AM 10.8823 -76.2493 320° Northwest  Level Estimated
11:10AM 10.9690 -76.3237 320° Northwest  Level Estimated
11:11AM 11.0556 -76.3981 320° Northwest  Level Estimated
11:12AM 11.1423 -76.4726 320° Northwest  Level Estimated
11:13AM 11.2289 -76.5472 320° Northwest  Level Estimated
11:14AM 11.3156 -76.6218 320° Northwest  Level Estimated
11:15AM 11.4022 -76.6964 320° Northwest  Level Estimated
11:16AM 11.4888 -76.7711 320° Northwest  Level Estimated
11:17AM 11.5753 -76.8458 320° Northwest  Level Estimated
11:18AM 11.6619 -76.9206 320° Northwest  Level Estimated
11:19AM 11.7484 -76.9954 320° Northwest  Level Estimated
11:20AM 11.8349 -77.0703 320° Northwest  Level Estimated
11:21AM 11.9214 -77.1452 320° Northwest  Level Estimated
11:22AM 12.0079 -77.2201 320° Northwest  Level Estimated
11:23AM 12.0943 -77.2952 320° Northwest  Level Estimated
11:24AM 12.1807 -77.3702 320° Northwest  Level Estimated
11:25AM 12.2672 -77.4453 320° Northwest  Level Estimated
11:26AM 12.3535 -77.5205 320° Northwest  Level Estimated
11:27AM 12.4399 -77.5957 320° Northwest  Level Estimated
11:28AM 12.5263 -77.6710 320° Northwest  Level Estimated
11:29AM 12.6126 -77.7463 320° Northwest  Level Estimated
11:30AM 12.6989 -77.8216 320° Northwest  Level Estimated
11:31AM 12.7852 -77.8970 320° Northwest  Level Estimated
11:32AM 12.8714 -77.9725 320° Northwest  Level Estimated
11:33AM 12.9577 -78.0480 320° Northwest  Level Estimated
11:34AM 13.0439 -78.1236 320° Northwest  Level Estimated
11:35AM 13.1301 -78.1992 319° Northwest  Level Estimated
11:36AM 13.2163 -78.2749 319° Northwest  Level Estimated
11:37AM 13.3024 -78.3506 319° Northwest  Level Estimated
11:38AM 13.3885 -78.4264 319° Northwest  Level Estimated
11:39AM 13.4747 -78.5022 319° Northwest  Level Estimated
11:40AM 13.5607 -78.5781 319° Northwest  Level Estimated
11:41AM 13.6468 -78.6540 319° Northwest  Level Estimated
11:42AM 13.7328 -78.7300 319° Northwest  Level Estimated
11:43AM 13.8188 -78.8061 319° Northwest  Level Estimated
11:44AM 13.9048 -78.8822 319° Northwest  Level Estimated
11:45AM 13.9908 -78.9584 319° Northwest  Level Estimated
11:46AM 14.0767 -79.0346 319° Northwest  Level Estimated
11:47AM 14.1627 -79.1108 319° Northwest  Level Estimated
11:48AM 14.2486 -79.1872 319° Northwest  Level Estimated
11:49AM 14.3344 -79.2636 319° Northwest  Level Estimated
11:50AM 14.4203 -79.3400 319° Northwest  Level Estimated
11:51AM 14.5061 -79.4165 319° Northwest  Level Estimated
11:52AM 14.5919 -79.4931 319° Northwest  Level Estimated
11:53AM 14.6777 -79.5697 319° Northwest  Level Estimated
11:54AM 14.7634 -79.6464 319° Northwest  Level Estimated
11:55AM 14.8491 -79.7232 319° Northwest  Level Estimated
11:56AM 14.9348 -79.8000 319° Northwest  Level Estimated
11:57AM 15.0205 -79.8769 319° Northwest  Level Estimated
11:58AM 15.1062 -79.9538 319° Northwest  Level Estimated
11:59AM 15.1918 -80.0308 319° Northwest  Level Estimated
12:00PM 15.2774 -80.1079 319° Northwest  Level Estimated
12:01PM 15.3630 -80.1850 319° Northwest  Level Estimated
12:02PM 15.4485 -80.2622 319° Northwest  Level Estimated
12:03PM 15.5340 -80.3394 319° Northwest  Level Estimated
12:04PM 15.6195 -80.4168 319° Northwest  Level Estimated
12:05PM 15.7050 -80.4941 319° Northwest  Level Estimated
12:06PM 15.7904 -80.5716 319° Northwest  Level Estimated
12:07PM 15.8758 -80.6491 319° Northwest  Level Estimated
12:08PM 15.9612 -80.7267 319° Northwest  Level Estimated
12:09PM 16.0465 -80.8043 319° Northwest  Level Estimated
12:10PM 16.1318 -80.8820 319° Northwest  Level Estimated
12:11PM 16.2171 -80.9598 319° Northwest  Level Estimated
12:12PM 16.3024 -81.0377 319° Northwest  Level Estimated
12:13PM 16.3876 -81.1156 319° Northwest  Level Estimated
12:14PM 16.4729 -81.1935 319° Northwest  Level Estimated
12:15PM 16.5580 -81.2716 319° Northwest  Level Estimated
12:16PM 16.6432 -81.3497 319° Northwest  Level Estimated
12:17PM 16.7283 -81.4279 319° Northwest  Level Estimated
12:18PM 16.8134 -81.5062 319° Northwest  Level Estimated
12:19PM 16.8985 -81.5845 319° Northwest  Level Estimated
12:20PM 16.9835 -81.6629 319° Northwest  Level Estimated
12:21PM 17.0685 -81.7414 319° Northwest  Level Estimated
12:22PM 17.1535 -81.8199 319° Northwest  Level Estimated
12:23PM 17.2384 -81.8985 319° Northwest  Level Estimated
12:24PM 17.3233 -81.9772 319° Northwest  Level Estimated
12:25PM 17.4082 -82.0559 318° Northwest  Level Estimated
12:26PM 17.4930 -82.1348 318° Northwest  Level Estimated
12:27PM 17.5779 -82.2137 318° Northwest  Level Estimated
12:28PM 17.6626 -82.2927 318° Northwest  Level Estimated
12:29PM 17.7474 -82.3717 318° Northwest  Level Estimated
12:30PM 17.8321 -82.4508 318° Northwest  Level Estimated
12:31PM 17.9168 -82.5300 318° Northwest  Level Estimated
12:32PM 18.0015 -82.6093 318° Northwest  Level Estimated
12:33PM 18.0861 -82.6887 318° Northwest  Level Estimated
12:34PM 18.1707 -82.7681 318° Northwest  Level Estimated
12:35PM 18.2553 -82.8476 318° Northwest  Level Estimated
12:36PM 18.3398 -82.9272 318° Northwest  Level Estimated
12:37PM 18.4243 -83.0069 318° Northwest  Level Estimated
12:38PM 18.5087 -83.0866 318° Northwest  Level Estimated
12:39PM 18.5932 -83.1664 318° Northwest  Level Estimated
12:40PM 18.6776 -83.2463 318° Northwest  Level Estimated
12:41PM 18.7619 -83.3263 318° Northwest  Level Estimated
12:42PM 18.8463 -83.4064 318° Northwest  Level Estimated
12:43PM 18.9305 -83.4865 318° Northwest  Level Estimated
12:44PM 19.0148 -83.5667 318° Northwest  Level Estimated
12:45PM 19.0990 -83.6470 318° Northwest  Level Estimated
12:46PM 19.1832 -83.7274 318° Northwest  Level Estimated
12:47PM 19.2674 -83.8079 318° Northwest  Level Estimated
12:48PM 19.3515 -83.8884 318° Northwest  Level Estimated
12:49PM 19.4356 -83.9690 318° Northwest  Level Estimated
12:50PM 19.5196 -84.0498 318° Northwest  Level Estimated
12:51PM 19.6036 -84.1306 318° Northwest  Level Estimated
12:52PM 19.6876 -84.2114 318° Northwest  Level Estimated
12:53PM 19.7715 -84.2924 318° Northwest  Level Estimated
12:54PM 19.8554 -84.3735 318° Northwest  Level Estimated
12:55PM 19.9393 -84.4546 318° Northwest  Level Estimated
12:56PM 20.0231 -84.5358 318° Northwest  Level Estimated
12:57PM 20.1069 -84.6171 318° Northwest  Level Estimated
12:58PM 20.1907 -84.6985 318° Northwest  Level Estimated
12:59PM 20.2744 -84.7800 318° Northwest  Level Estimated
01:00PM 20.3581 -84.8616 318° Northwest  Level Estimated
01:01PM 20.4417 -84.9433 318° Northwest  Level Estimated
01:02PM 20.5253 -85.0250 318° Northwest  Level Estimated
01:03PM 20.6089 -85.1068 317° Northwest  Level Estimated
01:04PM 20.6924 -85.1888 317° Northwest  Level Estimated
01:05PM 20.7759 -85.2708 317° Northwest  Level Estimated
01:06PM 20.8594 -85.3529 317° Northwest  Level Estimated
01:07PM 20.9428 -85.4351 317° Northwest  Level Estimated
01:08PM 21.0262 -85.5174 317° Northwest  Level Estimated
01:09PM 21.1095 -85.5998 317° Northwest  Level Estimated
01:10PM 21.1928 -85.6823 317° Northwest  Level Estimated
01:11PM 21.2760 -85.7648 317° Northwest  Level Estimated
01:12PM 21.3592 -85.8475 317° Northwest  Level Estimated
01:13PM 21.4424 -85.9303 317° Northwest  Level Estimated
01:14PM 21.5255 -86.0131 317° Northwest  Level Estimated
01:15PM 21.6086 -86.0961 317° Northwest  Level Estimated
01:16PM 21.6917 -86.1791 317° Northwest  Level Estimated
01:17PM 21.7747 -86.2623 317° Northwest  Level Estimated
01:18PM 21.8577 -86.3455 317° Northwest  Level Estimated
01:19PM 21.9406 -86.4288 317° Northwest  Level Estimated
01:20PM 22.0235 -86.5123 317° Northwest  Level Estimated
01:21PM 22.1063 -86.5958 317° Northwest  Level Estimated
01:22PM 22.1891 -86.6794 317° Northwest  Level Estimated
01:23PM 22.2719 -86.7632 317° Northwest  Level Estimated
01:24PM 22.3546 -86.8470 317° Northwest  Level Estimated
01:25PM 22.4372 -86.9309 317° Northwest  Level Estimated
01:26PM 22.5198 -87.0149 317° Northwest  Level Estimated
01:27PM 22.6024 -87.0990 317° Northwest  Level Estimated
01:28PM 22.6850 -87.1833 317° Northwest  Level Estimated
01:29PM 22.7675 -87.2676 317° Northwest  Level Estimated
01:30PM 22.8499 -87.3520 317° Northwest  Level Estimated
01:31PM 22.9323 -87.4365 317° Northwest  Level Estimated
01:32PM 23.0147 -87.5212 317° Northwest  Level Estimated
01:33PM 23.0970 -87.6059 317° Northwest  Level Estimated
01:34PM 23.1793 -87.6908 317° Northwest  Level Estimated
01:35PM 23.2615 -87.7757 317° Northwest  Level Estimated
01:36PM 23.3437 -87.8608 316° Northwest  Level Estimated
01:37PM 23.4258 -87.9459 316° Northwest  Level Estimated
01:38PM 23.5079 -88.0312 316° Northwest  Level Estimated
01:39PM 23.5899 -88.1165 316° Northwest  Level Estimated
01:40PM 23.6719 -88.2020 316° Northwest  Level Estimated
01:41PM 23.7539 -88.2876 316° Northwest  Level Estimated
01:42PM 23.8358 -88.3733 316° Northwest  Level Estimated
01:43PM 23.9176 -88.4591 316° Northwest  Level Estimated
01:44PM 23.9994 -88.5450 316° Northwest  Level Estimated
01:45PM 24.0812 -88.6310 316° Northwest  Level Estimated
01:46PM 24.1629 -88.7171 316° Northwest  Level Estimated
01:47PM 24.2445 -88.8034 316° Northwest  Level Estimated
01:48PM 24.3261 -88.8897 316° Northwest  Level Estimated
01:49PM 24.4077 -88.9762 316° Northwest  Level Estimated
01:50PM 24.4892 -89.0628 316° Northwest  Level Estimated
01:51PM 24.5707 -89.1495 316° Northwest  Level Estimated
01:52PM 24.6521 -89.2362 316° Northwest  Level Estimated
01:53PM 24.7334 -89.3232 316° Northwest  Level Estimated
01:54PM 24.8147 -89.4102 316° Northwest  Level Estimated
01:55PM 24.8960 -89.4973 316° Northwest  Level Estimated
01:56PM 24.9772 -89.5846 316° Northwest  Level Estimated
01:57PM 25.0584 -89.6719 316° Northwest  Level Estimated
01:58PM 25.1395 -89.7594 316° Northwest  Level Estimated
01:59PM 25.2205 -89.8470 316° Northwest  Level Estimated
02:00PM 25.3015 -89.9347 316° Northwest  Level Estimated
02:01PM 25.3825 -90.0226 316° Northwest  Level Estimated
02:02PM 25.4634 -90.1105 316° Northwest  Level Estimated
02:03PM 25.5443 -90.1986 316° Northwest  Level Estimated
02:04PM 25.6250 -90.2868 315° West  Level Estimated
02:05PM 25.7058 -90.3751 315° West  Level Estimated
02:06PM 25.7865 -90.4635 315° West  Level Estimated
02:07PM 25.8671 -90.5520 315° West  Level Estimated
02:08PM 25.9477 -90.6407 315° West  Level Estimated
02:09PM 26.0282 -90.7295 315° West  Level Estimated
02:10PM 26.1087 -90.8184 315° West  Level Estimated
02:11PM 26.1891 -90.9074 315° West  Level Estimated
02:12PM 26.2695 -90.9966 315° West  Level Estimated
02:13PM 26.3498 -91.0859 315° West  Level Estimated
02:14PM 26.4301 -91.1753 315° West  Level Estimated
02:15PM 26.5103 -91.2648 315° West  Level Estimated
02:16PM 26.5904 -91.3545 315° West  Level Estimated
02:17PM 26.6705 -91.4443 315° West  Level Estimated
02:18PM 26.7505 -91.5341 315° West  Level Estimated
02:19PM 26.8305 -91.6242 315° West  Level Estimated
02:20PM 26.9104 -91.7143 315° West  Level Estimated
02:21PM 26.9903 -91.8046 315° West  Level Estimated
02:22PM 27.0701 -91.8950 315° West  Level Estimated
02:23PM 27.1498 -91.9856 315° West  Level Estimated
02:24PM 27.2295 -92.0762 315° West  Level Estimated
02:25PM 27.3091 -92.1671 315° West  Level Estimated
02:26PM 27.3887 -92.2580 315° West  Level Estimated
02:27PM 27.4682 -92.3490 315° West  Level Estimated
02:28PM 27.5477 -92.4402 315° West  Level Estimated
02:29PM 27.6271 -92.5316 314° West  Level Estimated
02:30PM 27.7064 -92.6230 314° West  Level Estimated
02:31PM 27.7857 -92.7146 314° West  Level Estimated
02:32PM 27.8649 -92.8064 314° West  Level Estimated
02:33PM 27.9440 -92.8982 314° West  Level Estimated
02:34PM 28.0231 -92.9902 314° West  Level Estimated
02:35PM 28.1021 -93.0823 314° West  Level Estimated
02:36PM 28.1811 -93.1746 314° West  Level Estimated
02:37PM 28.2600 -93.2670 314° West  Level Estimated
02:38PM 28.3388 -93.3595 314° West  Level Estimated
02:39PM 28.4176 -93.4522 314° West  Level Estimated
02:40PM 28.4963 -93.5450 314° West  Level Estimated
02:41PM 28.5750 -93.6380 314° West  Level Estimated
02:42PM 28.6536 -93.7311 314° West  Level Estimated
02:43PM 28.7321 -93.8243 314° West  Level Estimated
02:44PM 28.8106 -93.9177 314° West  Level Estimated
02:45PM 28.8890 -94.0112 314° West  Level Estimated
02:46PM 28.9673 -94.1048 314° West  Level Estimated
02:47PM 29.0456 -94.1986 314° West  Level Estimated
02:48PM 29.1238 -94.2926 314° West  Level Estimated
02:49PM 29.2019 -94.3867 314° West  Level Estimated
02:50PM 29.2800 -94.4809 314° West  Level Estimated
02:51PM 29.3580 -94.5752 313° West  Level Estimated
02:52PM 29.4359 -94.6698 313° West  Level Estimated
02:53PM 29.5138 -94.7644 313° West  Level Estimated
02:54PM 29.5916 -94.8592 313° West  Level Estimated
02:55PM 29.6693 -94.9542 313° West  Level Estimated
02:56PM 29.7470 -95.0493 313° West  Level Estimated
02:57PM 29.8246 -95.1445 313° West  Level Estimated
02:58PM 29.9021 -95.2399 313° West  Level Estimated
02:59PM 29.9796 -95.3354 313° West  Level Estimated
03:00PM 29.9844 -95.3414 313° West  Level Estimated
03:01PM 29.9844 -95.3414 319° Northwest  Level Estimated
03:02PM 29.9844 -95.3414 319° Northwest  Level Estimated
03:03PM 29.9844 -95.3414 319° Northwest  Level Estimated
03:04PM 29.9844 -95.3414 319° Northwest  Level Estimated
03:05PM 29.9844 -95.3414 319° Northwest  Level Estimated
03:06PM 29.9844 -95.3414 319° Northwest  Level Estimated
03:07PM 29.9844 -95.3414 319° Northwest  Level Estimated
03:08PM 29.9844 -95.3414 319° Northwest  Level Estimated
03:09PM 29.9844 -95.3414 319° Northwest  Level Estimated
03:10PM 29.9844 -95.3414 319° Northwest  Level Estimated
03:11PM 29.9844 -95.3414 319° Northwest  Level Estimated
03:12PM 29.9844 -95.3414 319° Northwest  Level Estimated
03:13PM 29.9844 -95.3414 319° Northwest  Level Estimated
03:14PM 29.9844 -95.3414 319° Northwest  Level Estimated
03:15PM 29.9844 -95.3414 319° Northwest  Level Estimated